Pride — ZDFD7 — position and weather

sailwx.info

Track history (hours):
 
Tides and Currents Weather Stations Pressure Air Temp Water Temp Dewpoint Dewpoint Depression Visibility Wind Speed Wind Dir Waves Ship Positions

Pride

Last reported at 2017-Sep-21 16:25 UTC. Time now 2017-Sep-23 18:35 UTC.
Position N 37°17' W 000°57'.

Length 88 m; draft 5.2 m.

Type: Cargo ship. MMSI: 236166000.

Date/timePositionNaut miles runAvg speedWind from/ knotsBaromVisibWave heightAir tempDewpointWater temp
2017-Sep-21 16:25N 37°17' W 000°57'4 9.7
2017-Sep-21 15:58N 37°20' W 000°53'5 9.6
2017-Sep-21 15:29N 37°23' W 000°49'5 9.5
2017-Sep-21 15:00N 37°26' W 000°45'10 9.7
2017-Sep-21 13:59N 37°33' W 000°35'510.0
2017-Sep-21 13:29N 37°37' W 000°31'5 9.8
2017-Sep-21 13:00N 37°41' W 000°28'154 9.5
2017-Sep-20 20:51N 39°56' E 001°06'410.1
2017-Sep-20 20:29N 39°59' E 001°08'610.0
2017-Sep-20 19:56N 40°04' E 001°11'4 9.8
2017-Sep-20 19:30N 40°08' E 001°14'5 9.7
2017-Sep-20 19:00N 40°12' E 001°16'5 9.7
2017-Sep-20 18:28N 40°17' E 001°19'5 9.7
2017-Sep-20 18:00N 40°21' E 001°22'10 9.6
2017-Sep-20 17:00N 40°30' E 001°27'5 9.1
2017-Sep-20 16:28N 40°34' E 001°30'4 9.0
2017-Sep-20 15:59N 40°39' E 001°31'8 9.1
2017-Sep-20 15:04N 40°47' E 001°35'4 9.3
2017-Sep-20 14:37N 40°51' E 001°36'13 9.5
2017-Sep-20 13:13N 41°03' E 001°41'2 9.3
2017-Sep-20 13:00N 41°05' E 001°42'5 9.6
2017-Sep-20 12:30N 41°10' E 001°44'3 5.6
2017-Sep-20 12:00N 41°13' E 001°44'0 0.1
2017-Sep-20 11:25N 41°13' E 001°44'0 0.0
2017-Sep-20 10:58N 41°13' E 001°44'0 0.0
2017-Sep-20 10:17N 41°13' E 001°44'0 0.0
2017-Sep-20 09:59N 41°13' E 001°44'0 0.0
2017-Sep-20 09:30N 41°13' E 001°44'0 0.0
2017-Sep-20 09:00N 41°13' E 001°44'0 0.0
2017-Sep-20 08:21N 41°13' E 001°44'0 0.0
2017-Sep-20 07:49N 41°13' E 001°44'0 0.0
2017-Sep-20 07:27N 41°13' E 001°44'0 0.0
2017-Sep-20 07:00N 41°13' E 001°44'0 0.0
2017-Sep-20 06:19N 41°13' E 001°44'0 0.0
2017-Sep-20 05:49N 41°13' E 001°44'0 0.0
2017-Sep-20 05:19N 41°13' E 001°44'0 0.0
2017-Sep-20 04:53N 41°13' E 001°44'0 0.0
2017-Sep-20 04:24N 41°13' E 001°44'0 0.0
2017-Sep-20 03:57N 41°13' E 001°44'0 0.0
2017-Sep-20 03:27N 41°13' E 001°44'0 0.0
2017-Sep-20 03:00N 41°13' E 001°44'0 0.0
2017-Sep-20 02:30N 41°13' E 001°44'0 0.0
2017-Sep-20 02:00N 41°13' E 001°44'0 0.0
2017-Sep-20 01:30N 41°13' E 001°44'0 0.0
2017-Sep-20 01:00N 41°13' E 001°44'0 0.0
2017-Sep-20 00:30N 41°13' E 001°44'0 0.0
2017-Sep-19 23:53N 41°13' E 001°44'0 0.0
2017-Sep-19 23:23N 41°13' E 001°44'0 0.0
2017-Sep-19 22:53N 41°13' E 001°44'0 0.0
2017-Sep-19 22:23N 41°13' E 001°44'0 0.0
2017-Sep-19 21:53N 41°13' E 001°44'0 0.0
2017-Sep-19 21:23N 41°13' E 001°44'0 0.0
2017-Sep-19 20:56N 41°13' E 001°44'0 0.0
2017-Sep-19 20:26N 41°13' E 001°44'0 0.0
2017-Sep-19 19:48N 41°13' E 001°44'0 0.0
2017-Sep-19 19:21N 41°13' E 001°44'0 0.0
2017-Sep-19 18:51N 41°13' E 001°44'0 0.0
2017-Sep-19 18:21N 41°13' E 001°44'0 0.0
2017-Sep-19 17:54N 41°13' E 001°44'0 0.0
2017-Sep-19 17:21N 41°13' E 001°44'0 0.0
2017-Sep-19 16:51N 41°13' E 001°44'0 0.0
2017-Sep-19 16:24N 41°13' E 001°44'0 0.0
2017-Sep-19 15:54N 41°13' E 001°44'0 0.0
2017-Sep-19 15:27N 41°13' E 001°44'0 0.0
2017-Sep-19 14:57N 41°13' E 001°44'0 0.0
2017-Sep-19 14:27N 41°13' E 001°44'0 0.0
2017-Sep-19 13:52N 41°13' E 001°44'0 0.0
2017-Sep-19 13:22N 41°13' E 001°44'0 0.0
2017-Sep-19 12:55N 41°13' E 001°44'0 0.0
2017-Sep-19 12:25N 41°13' E 001°44'0 0.0
2017-Sep-19 11:55N 41°13' E 001°44'0 0.0
2017-Sep-19 11:11N 41°13' E 001°44'0 0.0
2017-Sep-19 10:59N 41°13' E 001°44'0 0.0
2017-Sep-19 10:29N 41°13' E 001°44'0 0.0
2017-Sep-19 09:29N 41°13' E 001°44'0 0.0
2017-Sep-19 08:59N 41°13' E 001°44'0 0.0
2017-Sep-19 06:07N 41°13' E 001°44'0 0.1
2017-Sep-19 05:55N 41°13' E 001°44'0 0.0
2017-Sep-19 05:22N 41°13' E 001°44'0 0.0
2017-Sep-19 04:58N 41°13' E 001°44'0 0.0
2017-Sep-19 04:20N 41°13' E 001°44'0 0.0
2017-Sep-19 03:50N 41°13' E 001°44'0 0.0
2017-Sep-19 03:23N 41°13' E 001°44'0 0.0
2017-Sep-19 02:53N 41°13' E 001°44'0 0.0
2017-Sep-19 02:26N 41°13' E 001°44'0 0.0
2017-Sep-19 01:57N 41°13' E 001°44'0 0.0
2017-Sep-19 01:27N 41°13' E 001°44'0 0.0
2017-Sep-19 00:57N 41°13' E 001°44'0 0.0
2017-Sep-19 00:22N 41°13' E 001°44'0 0.0
2017-Sep-18 23:52N 41°13' E 001°44'0 0.0
2017-Sep-18 23:22N 41°13' E 001°44'0 0.0
2017-Sep-18 22:55N 41°13' E 001°44'0 0.0
2017-Sep-18 22:25N 41°13' E 001°44'0 0.0
2017-Sep-18 21:55N 41°13' E 001°44'0 0.0
2017-Sep-18 21:27N 41°13' E 001°44'0 0.0
2017-Sep-18 21:00N 41°13' E 001°44'0 0.0
2017-Sep-18 20:28N 41°13' E 001°44'0 0.0
2017-Sep-18 19:58N 41°13' E 001°44'0 0.0
2017-Sep-18 19:19N 41°13' E 001°44'0 0.0
2017-Sep-18 18:52N 41°13' E 001°44'0 0.0
2017-Sep-18 18:22N 41°13' E 001°44'0 0.0
2017-Sep-18 17:52N 41°13' E 001°44'0 0.0
2017-Sep-18 17:22N 41°13' E 001°44'0 0.0
2017-Sep-18 16:52N 41°13' E 001°44'0 0.0
2017-Sep-18 16:22N 41°13' E 001°44'0 0.0
2017-Sep-18 15:49N 41°13' E 001°44'0 0.0
2017-Sep-18 15:25N 41°13' E 001°44'0 0.0
2017-Sep-18 14:55N 41°13' E 001°44'0 0.0
2017-Sep-18 14:28N 41°13' E 001°44'0 0.0
2017-Sep-18 13:59N 41°13' E 001°44'0 0.0
2017-Sep-18 13:29N 41°13' E 001°44'0 0.0
2017-Sep-18 12:59N 41°13' E 001°44'0 0.0
2017-Sep-18 12:29N 41°13' E 001°44'0 0.0
2017-Sep-18 11:59N 41°13' E 001°44'0 0.0
2017-Sep-18 11:29N 41°13' E 001°44'0 0.0
2017-Sep-18 10:46N 41°13' E 001°44'0 0.0
2017-Sep-18 10:30N 41°13' E 001°44'1 1.3
2017-Sep-18 10:00N 41°12' E 001°44'0 0.8
2017-Sep-18 09:22N 41°12' E 001°44'0 0.0
2017-Sep-18 08:55N 41°12' E 001°44'0 0.0
2017-Sep-18 08:21N 41°12' E 001°44'0 0.0
2017-Sep-18 07:54N 41°12' E 001°44'0 0.0
2017-Sep-18 07:26N 41°12' E 001°44'0 0.0
2017-Sep-18 06:59N 41°12' E 001°44'0 0.0
2017-Sep-18 06:29N 41°12' E 001°44'0 0.0
2017-Sep-18 05:59N 41°12' E 001°44'0 0.0
2017-Sep-18 05:23N 41°12' E 001°44'0 0.0
2017-Sep-18 05:00N 41°12' E 001°44'0 0.0
2017-Sep-18 04:23N 41°12' E 001°44'0 0.0
2017-Sep-18 03:53N 41°12' E 001°44'0 0.0
2017-Sep-18 03:26N 41°12' E 001°44'0 0.2
2017-Sep-18 03:01N 41°12' E 001°44'3 6.8
2017-Sep-18 02:30N 41°08' E 001°43'5 9.4
2017-Sep-18 02:00N 41°04' E 001°41'7 9.6
2017-Sep-18 01:16N 40°57' E 001°39'12 9.8
2017-Sep-18 00:04N 40°46' E 001°34'3 9.8
2017-Sep-17 23:48N 40°43' E 001°33'3 9.5
2017-Sep-17 23:29N 40°41' E 001°32'5 9.6
2017-Sep-17 22:58N 40°36' E 001°30'5 9.8
2017-Sep-17 22:28N 40°31' E 001°28'5 9.7
2017-Sep-17 21:56N 40°26' E 001°25'4 9.1
2017-Sep-17 21:31N 40°23' E 001°23'5 9.2
2017-Sep-17 21:00N 40°19' E 001°21'5 9.0
2017-Sep-17 20:30N 40°14' E 001°19'4 8.9
2017-Sep-17 20:00N 40°10' E 001°16'5 9.1
2017-Sep-17 19:30N 40°06' E 001°14'5 9.3
2017-Sep-17 19:00N 40°02' E 001°12'5 9.1
2017-Sep-17 18:30N 39°58' E 001°09'152 9.8
2017-Sep-17 03:00N 37°44' W 000°22'5 9.4
2017-Sep-17 02:30N 37°40' W 000°25'6 9.3
2017-Sep-17 01:49N 37°34' W 000°29'3 9.0
2017-Sep-17 01:30N 37°32' W 000°32'7 9.1
2017-Sep-17 00:41N 37°27' W 000°39'2 8.8
2017-Sep-17 00:29N 37°26' W 000°41'4 9.0
2017-Sep-17 00:00N 37°23' W 000°45'4 8.9
2017-Sep-16 23:30N 37°20' W 000°49'22610.1
2017-Sep-16 01:07N 35°59' W 005°12'213.6
2017-Sep-16 01:00N 35°59' W 005°14'713.1
2017-Sep-16 00:30N 35°58' W 005°22'612.6
2017-Sep-16 00:01N 35°57' W 005°30'2611.2
2017-Sep-15 21:40N 35°47' W 005°60'119 9.8
2017-Sep-15 09:30N 34°27' W 007°48'6 9.9
2017-Sep-15 08:56N 34°24' W 007°53'4 9.8
2017-Sep-15 08:31N 34°21' W 007°57'58 8.9
2017-Sep-15 01:58N 33°31' W 008°35'33 1.0
2017-Sep-13 17:50N 34°02' W 008°48'52 9.9
2017-Sep-13 12:37N 34°54' W 008°53'1 9.9
2017-Sep-13 12:29N 34°55' W 008°53'5 9.9
2017-Sep-13 12:00N 34°60' W 008°54'44 9.7
2017-Sep-13 07:27N 35°44' W 008°58'3 6.5
2017-Sep-13 06:59N 35°47' W 008°59'24 8.6
2017-Sep-13 04:13N 36°11' W 009°03'10 9.6
2017-Sep-13 03:09N 36°21' W 009°03'1 9.8
2017-Sep-13 03:00N 36°22' W 009°03'8 9.9
2017-Sep-13 02:14N 36°30' W 009°04'8 9.2
2017-Sep-13 01:25N 36°32' W 009°13'4 9.2
2017-Sep-13 01:00N 36°33' W 009°18'13 9.6
2017-Sep-12 23:38N 36°42' W 009°29'1 9.3
2017-Sep-12 23:30N 36°43' W 009°30'5 9.5
2017-Sep-12 23:00N 36°47' W 009°34'28 9.9
2017-Sep-12 20:13N 37°14' W 009°42'1410.2
2017-Sep-12 18:49N 37°28' W 009°46'410.2
2017-Sep-12 18:27N 37°31' W 009°47'510.3
2017-Sep-12 18:00N 37°36' W 009°48'5 9.9
2017-Sep-12 17:30N 37°41' W 009°49'5 9.7
2017-Sep-12 17:00N 37°45' W 009°51'13 9.7
2017-Sep-12 15:41N 37°58' W 009°54'2 9.9
2017-Sep-12 15:30N 37°60' W 009°55'1710.1
2017-Sep-12 13:50N 38°16' W 009°60'310.2
2017-Sep-12 13:30N 38°19' W 010°01'510.3
2017-Sep-12 13:00N 38°24' W 010°02'510.2
2017-Sep-12 12:30N 38°29' W 010°04'510.2
2017-Sep-12 12:00N 38°34' W 010°05'510.0
2017-Sep-12 11:30N 38°39' W 010°06'510.1
2017-Sep-12 11:00N 38°44' W 010°07'510.4
2017-Sep-12 10:30N 38°49' W 010°07'510.4
2017-Sep-12 10:00N 38°55' W 010°07'510.6
2017-Sep-12 09:30N 38°60' W 010°07'510.5
2017-Sep-12 09:00N 39°05' W 010°07'510.6
2017-Sep-12 08:30N 39°10' W 010°07'7 9.9
2017-Sep-12 07:50N 39°17' W 010°07'3 9.6
2017-Sep-12 07:29N 39°20' W 010°07'  
Track history (hours):
 
Tides and Currents Weather Stations Pressure Air Temp Water Temp Dewpoint Dewpoint Depression Visibility Wind Speed Wind Dir Waves Ship Positions

Pride

Last reported at 2017-Sep-21 16:25 UTC. Time now 2017-Sep-23 18:35 UTC.
Position N 37°17' W 000°57'.

Length 88 m; draft 5.2 m.

Type: Cargo ship. MMSI: 236166000.

Date/timePositionNaut miles runAvg speedWind from/ knotsBaromVisibWave heightAir tempDewpointWater temp
2017-Sep-21 16:25N 37°17' W 000°57'4 9.7
2017-Sep-21 15:58N 37°20' W 000°53'5 9.6
2017-Sep-21 15:29N 37°23' W 000°49'5 9.5
2017-Sep-21 15:00N 37°26' W 000°45'10 9.7
2017-Sep-21 13:59N 37°33' W 000°35'510.0
2017-Sep-21 13:29N 37°37' W 000°31'5 9.8
2017-Sep-21 13:00N 37°41' W 000°28'154 9.5
2017-Sep-20 20:51N 39°56' E 001°06'410.1
2017-Sep-20 20:29N 39°59' E 001°08'610.0
2017-Sep-20 19:56N 40°04' E 001°11'4 9.8
2017-Sep-20 19:30N 40°08' E 001°14'5 9.7
2017-Sep-20 19:00N 40°12' E 001°16'5 9.7
2017-Sep-20 18:28N 40°17' E 001°19'5 9.7
2017-Sep-20 18:00N 40°21' E 001°22'10 9.6
2017-Sep-20 17:00N 40°30' E 001°27'5 9.1
2017-Sep-20 16:28N 40°34' E 001°30'4 9.0
2017-Sep-20 15:59N 40°39' E 001°31'8 9.1
2017-Sep-20 15:04N 40°47' E 001°35'4 9.3
2017-Sep-20 14:37N 40°51' E 001°36'13 9.5
2017-Sep-20 13:13N 41°03' E 001°41'2 9.3
2017-Sep-20 13:00N 41°05' E 001°42'5 9.6
2017-Sep-20 12:30N 41°10' E 001°44'3 5.6
2017-Sep-20 12:00N 41°13' E 001°44'0 0.1
2017-Sep-20 11:25N 41°13' E 001°44'0 0.0
2017-Sep-20 10:58N 41°13' E 001°44'0 0.0
2017-Sep-20 10:17N 41°13' E 001°44'0 0.0
2017-Sep-20 09:59N 41°13' E 001°44'0 0.0
2017-Sep-20 09:30N 41°13' E 001°44'0 0.0
2017-Sep-20 09:00N 41°13' E 001°44'0 0.0
2017-Sep-20 08:21N 41°13' E 001°44'0 0.0
2017-Sep-20 07:49N 41°13' E 001°44'0 0.0
2017-Sep-20 07:27N 41°13' E 001°44'0 0.0
2017-Sep-20 07:00N 41°13' E 001°44'0 0.0
2017-Sep-20 06:19N 41°13' E 001°44'0 0.0
2017-Sep-20 05:49N 41°13' E 001°44'0 0.0
2017-Sep-20 05:19N 41°13' E 001°44'0 0.0
2017-Sep-20 04:53N 41°13' E 001°44'0 0.0
2017-Sep-20 04:24N 41°13' E 001°44'0 0.0
2017-Sep-20 03:57N 41°13' E 001°44'0 0.0
2017-Sep-20 03:27N 41°13' E 001°44'0 0.0
2017-Sep-20 03:00N 41°13' E 001°44'0 0.0
2017-Sep-20 02:30N 41°13' E 001°44'0 0.0
2017-Sep-20 02:00N 41°13' E 001°44'0 0.0
2017-Sep-20 01:30N 41°13' E 001°44'0 0.0
2017-Sep-20 01:00N 41°13' E 001°44'0 0.0
2017-Sep-20 00:30N 41°13' E 001°44'0 0.0
2017-Sep-19 23:53N 41°13' E 001°44'0 0.0
2017-Sep-19 23:23N 41°13' E 001°44'0 0.0
2017-Sep-19 22:53N 41°13' E 001°44'0 0.0
2017-Sep-19 22:23N 41°13' E 001°44'0 0.0
2017-Sep-19 21:53N 41°13' E 001°44'0 0.0
2017-Sep-19 21:23N 41°13' E 001°44'0 0.0
2017-Sep-19 20:56N 41°13' E 001°44'0 0.0
2017-Sep-19 20:26N 41°13' E 001°44'0 0.0
2017-Sep-19 19:48N 41°13' E 001°44'0 0.0
2017-Sep-19 19:21N 41°13' E 001°44'0 0.0
2017-Sep-19 18:51N 41°13' E 001°44'0 0.0
2017-Sep-19 18:21N 41°13' E 001°44'0 0.0
2017-Sep-19 17:54N 41°13' E 001°44'0 0.0
2017-Sep-19 17:21N 41°13' E 001°44'0 0.0
2017-Sep-19 16:51N 41°13' E 001°44'0 0.0
2017-Sep-19 16:24N 41°13' E 001°44'0 0.0
2017-Sep-19 15:54N 41°13' E 001°44'0 0.0
2017-Sep-19 15:27N 41°13' E 001°44'0 0.0
2017-Sep-19 14:57N 41°13' E 001°44'0 0.0
2017-Sep-19 14:27N 41°13' E 001°44'0 0.0
2017-Sep-19 13:52N 41°13' E 001°44'0 0.0
2017-Sep-19 13:22N 41°13' E 001°44'0 0.0
2017-Sep-19 12:55N 41°13' E 001°44'0 0.0
2017-Sep-19 12:25N 41°13' E 001°44'0 0.0
2017-Sep-19 11:55N 41°13' E 001°44'0 0.0
2017-Sep-19 11:11N 41°13' E 001°44'0 0.0
2017-Sep-19 10:59N 41°13' E 001°44'0 0.0
2017-Sep-19 10:29N 41°13' E 001°44'0 0.0
2017-Sep-19 09:29N 41°13' E 001°44'0 0.0
2017-Sep-19 08:59N 41°13' E 001°44'0 0.0
2017-Sep-19 06:07N 41°13' E 001°44'0 0.1
2017-Sep-19 05:55N 41°13' E 001°44'0 0.0
2017-Sep-19 05:22N 41°13' E 001°44'0 0.0
2017-Sep-19 04:58N 41°13' E 001°44'0 0.0
2017-Sep-19 04:20N 41°13' E 001°44'0 0.0
2017-Sep-19 03:50N 41°13' E 001°44'0 0.0
2017-Sep-19 03:23N 41°13' E 001°44'0 0.0
2017-Sep-19 02:53N 41°13' E 001°44'0 0.0
2017-Sep-19 02:26N 41°13' E 001°44'0 0.0
2017-Sep-19 01:57N 41°13' E 001°44'0 0.0
2017-Sep-19 01:27N 41°13' E 001°44'0 0.0
2017-Sep-19 00:57N 41°13' E 001°44'0 0.0
2017-Sep-19 00:22N 41°13' E 001°44'0 0.0
2017-Sep-18 23:52N 41°13' E 001°44'0 0.0
2017-Sep-18 23:22N 41°13' E 001°44'0 0.0
2017-Sep-18 22:55N 41°13' E 001°44'0 0.0
2017-Sep-18 22:25N 41°13' E 001°44'0 0.0
2017-Sep-18 21:55N 41°13' E 001°44'0 0.0
2017-Sep-18 21:27N 41°13' E 001°44'0 0.0
2017-Sep-18 21:00N 41°13' E 001°44'0 0.0
2017-Sep-18 20:28N 41°13' E 001°44'0 0.0
2017-Sep-18 19:58N 41°13' E 001°44'0 0.0
2017-Sep-18 19:19N 41°13' E 001°44'0 0.0
2017-Sep-18 18:52N 41°13' E 001°44'0 0.0
2017-Sep-18 18:22N 41°13' E 001°44'0 0.0
2017-Sep-18 17:52N 41°13' E 001°44'0 0.0
2017-Sep-18 17:22N 41°13' E 001°44'0 0.0
2017-Sep-18 16:52N 41°13' E 001°44'0 0.0
2017-Sep-18 16:22N 41°13' E 001°44'0 0.0
2017-Sep-18 15:49N 41°13' E 001°44'0 0.0
2017-Sep-18 15:25N 41°13' E 001°44'0 0.0
2017-Sep-18 14:55N 41°13' E 001°44'0 0.0
2017-Sep-18 14:28N 41°13' E 001°44'0 0.0
2017-Sep-18 13:59N 41°13' E 001°44'0 0.0
2017-Sep-18 13:29N 41°13' E 001°44'0 0.0
2017-Sep-18 12:59N 41°13' E 001°44'0 0.0
2017-Sep-18 12:29N 41°13' E 001°44'0 0.0
2017-Sep-18 11:59N 41°13' E 001°44'0 0.0
2017-Sep-18 11:29N 41°13' E 001°44'0 0.0
2017-Sep-18 10:46N 41°13' E 001°44'0 0.0
2017-Sep-18 10:30N 41°13' E 001°44'1 1.3
2017-Sep-18 10:00N 41°12' E 001°44'0 0.8
2017-Sep-18 09:22N 41°12' E 001°44'0 0.0
2017-Sep-18 08:55N 41°12' E 001°44'0 0.0
2017-Sep-18 08:21N 41°12' E 001°44'0 0.0
2017-Sep-18 07:54N 41°12' E 001°44'0 0.0
2017-Sep-18 07:26N 41°12' E 001°44'0 0.0
2017-Sep-18 06:59N 41°12' E 001°44'0 0.0
2017-Sep-18 06:29N 41°12' E 001°44'0 0.0
2017-Sep-18 05:59N 41°12' E 001°44'0 0.0
2017-Sep-18 05:23N 41°12' E 001°44'0 0.0
2017-Sep-18 05:00N 41°12' E 001°44'0 0.0
2017-Sep-18 04:23N 41°12' E 001°44'0 0.0
2017-Sep-18 03:53N 41°12' E 001°44'0 0.0
2017-Sep-18 03:26N 41°12' E 001°44'0 0.2
2017-Sep-18 03:01N 41°12' E 001°44'3 6.8
2017-Sep-18 02:30N 41°08' E 001°43'5 9.4
2017-Sep-18 02:00N 41°04' E 001°41'7 9.6
2017-Sep-18 01:16N 40°57' E 001°39'12 9.8
2017-Sep-18 00:04N 40°46' E 001°34'3 9.8
2017-Sep-17 23:48N 40°43' E 001°33'3 9.5
2017-Sep-17 23:29N 40°41' E 001°32'5 9.6
2017-Sep-17 22:58N 40°36' E 001°30'5 9.8
2017-Sep-17 22:28N 40°31' E 001°28'5 9.7
2017-Sep-17 21:56N 40°26' E 001°25'4 9.1
2017-Sep-17 21:31N 40°23' E 001°23'5 9.2
2017-Sep-17 21:00N 40°19' E 001°21'5 9.0
2017-Sep-17 20:30N 40°14' E 001°19'4 8.9
2017-Sep-17 20:00N 40°10' E 001°16'5 9.1
2017-Sep-17 19:30N 40°06' E 001°14'5 9.3
2017-Sep-17 19:00N 40°02' E 001°12'5 9.1
2017-Sep-17 18:30N 39°58' E 001°09'152 9.8
2017-Sep-17 03:00N 37°44' W 000°22'5 9.4
2017-Sep-17 02:30N 37°40' W 000°25'6 9.3
2017-Sep-17 01:49N 37°34' W 000°29'3 9.0
2017-Sep-17 01:30N 37°32' W 000°32'7 9.1
2017-Sep-17 00:41N 37°27' W 000°39'2 8.8
2017-Sep-17 00:29N 37°26' W 000°41'4 9.0
2017-Sep-17 00:00N 37°23' W 000°45'4 8.9
2017-Sep-16 23:30N 37°20' W 000°49'22610.1
2017-Sep-16 01:07N 35°59' W 005°12'213.6
2017-Sep-16 01:00N 35°59' W 005°14'713.1
2017-Sep-16 00:30N 35°58' W 005°22'612.6
2017-Sep-16 00:01N 35°57' W 005°30'2611.2
2017-Sep-15 21:40N 35°47' W 005°60'119 9.8
2017-Sep-15 09:30N 34°27' W 007°48'6 9.9
2017-Sep-15 08:56N 34°24' W 007°53'4 9.8
2017-Sep-15 08:31N 34°21' W 007°57'58 8.9
2017-Sep-15 01:58N 33°31' W 008°35'33 1.0
2017-Sep-13 17:50N 34°02' W 008°48'52 9.9
2017-Sep-13 12:37N 34°54' W 008°53'1 9.9
2017-Sep-13 12:29N 34°55' W 008°53'5 9.9
2017-Sep-13 12:00N 34°60' W 008°54'44 9.7
2017-Sep-13 07:27N 35°44' W 008°58'3 6.5
2017-Sep-13 06:59N 35°47' W 008°59'24 8.6
2017-Sep-13 04:13N 36°11' W 009°03'10 9.6
2017-Sep-13 03:09N 36°21' W 009°03'1 9.8
2017-Sep-13 03:00N 36°22' W 009°03'8 9.9
2017-Sep-13 02:14N 36°30' W 009°04'8 9.2
2017-Sep-13 01:25N 36°32' W 009°13'4 9.2
2017-Sep-13 01:00N 36°33' W 009°18'13 9.6
2017-Sep-12 23:38N 36°42' W 009°29'1 9.3
2017-Sep-12 23:30N 36°43' W 009°30'5 9.5
2017-Sep-12 23:00N 36°47' W 009°34'28 9.9
2017-Sep-12 20:13N 37°14' W 009°42'1410.2
2017-Sep-12 18:49N 37°28' W 009°46'410.2
2017-Sep-12 18:27N 37°31' W 009°47'510.3
2017-Sep-12 18:00N 37°36' W 009°48'5 9.9
2017-Sep-12 17:30N 37°41' W 009°49'5 9.7
2017-Sep-12 17:00N 37°45' W 009°51'13 9.7
2017-Sep-12 15:41N 37°58' W 009°54'2 9.9
2017-Sep-12 15:30N 37°60' W 009°55'1710.1
2017-Sep-12 13:50N 38°16' W 009°60'310.2
2017-Sep-12 13:30N 38°19' W 010°01'510.3
2017-Sep-12 13:00N 38°24' W 010°02'510.2
2017-Sep-12 12:30N 38°29' W 010°04'510.2
2017-Sep-12 12:00N 38°34' W 010°05'510.0
2017-Sep-12 11:30N 38°39' W 010°06'510.1
2017-Sep-12 11:00N 38°44' W 010°07'510.4
2017-Sep-12 10:30N 38°49' W 010°07'510.4
2017-Sep-12 10:00N 38°55' W 010°07'510.6
2017-Sep-12 09:30N 38°60' W 010°07'510.5
2017-Sep-12 09:00N 39°05' W 010°07'510.6
2017-Sep-12 08:30N 39°10' W 010°07'7 9.9
2017-Sep-12 07:50N 39°17' W 010°07'3 9.6
2017-Sep-12 07:29N 39°20' W 010°07'  

Dump ship's entire track history